Weather at Iron Crown Airport

Public forecast

Using degrees Fahrenheit for public forecast. Weather courtesy of forecast.io.

Closest aviation weather report (METAR) to Iron Crown Airport

Closest report is Salem Municipal Airport/McNary Field, 10.4 nm (19.2 km) W. Retrieved 2021/06/19 21:56 UTC (29 minutes ago):

KSLE 192156Z 02010G18KT 10SM CLR 27/10 A3003 RMK AO2 SLP166 T02670100

Closest aviation forecast (TAF) to Iron Crown Airport

Closest forecast is Salem Municipal Airport/McNary Field, 10.4 nm (19.2 km) W. Retrieved 2021/06/19 18:42 UTC (4 hours ago):

TAF KSLE 191738Z 1918/2018 01006KT P6SM SKC FM192100 01010G18KT P6SM SKC FM200300 35008KT P6SM SKC